Mineral Point, Pennsylvania
Current Conditions -  °F | °C
As of 6:54 AM on Tuesday 21 Oct 2014 (Local Time) from KJST Reporting Station
Moderate Fog Moderate Fog  
Wind Chill: 44°   Ceiling: 200
Heat Index: 47°   Visibility: 0.25mi
Dew Point: 45°   Wind: 7mph
Humidity: 93%   Direction: 270°W
Pressure: 29.84"   Gusts: NA
Location:  40.38°N, 78.84°W
Report Text: KJST 211054Z AUTO 27006KT 1/4SM FG VV002 08/07 A2984 RMK AO2 RAE44 SLP108 P0002 T00830072
Loading
Personal Weather Stations






























Interactive Weather Map
Tropical Storm Tracking
New forecast layout! Learn more

10-Day Weather Forecast

Advertisements
Track Severe Weather on mobile